Nearby METAR Reports

 

KBAX - Bad Axe, Michigan, USA
Distance from station: ESE 22mi, 35km
Updated: Sun, 17-Nov-2019 10:15am EST
Clear
Clear
 Wind from SSE
Wind: SSE 7 mph , 11 km/h
Temperature: 32°F , 0°C
Wind Chill: 25°F , -4°C
Dew Point: 25°F , -4°C
Humidity: 75%
Barometer: 30.13 inHg , 1020.3 hPa
Clouds: Clear
Visibility: 10 miles , 16 km
2019/11/17 15:15 KBAX 171515Z AUTO 16006KT 10SM CLR 00/M04 A3013 RMK AO2 T00011036
KFNT - Flint, Michigan, USA
Distance from station: SSW 68mi, 109km
Updated: Sun, 17-Nov-2019 9:53am EST
Clear
Clear
 Wind from calm
Wind: Calm
Temperature: 28°F , -2°C
Dew Point: 19°F , -7°C
Humidity: 69%
Barometer: 30.12 inHg , 1020 hPa
Clouds: Clear
Visibility: 10 miles , 16 km
2019/11/17 14:53 KFNT 171453Z 00000KT 10SM CLR M02/M07 A3012 RMK AO2 SLP210 T10221067 56017
KMBS - Saginaw, Michigan, USA
Distance from station: SW 44mi, 70km
Updated: Sun, 17-Nov-2019 9:53am EST
Clear
Clear
 Wind from ESE
Wind: ESE 5 mph , 7 km/h
Temperature: 27°F , -3°C
Wind Chill: 21°F , -6°C
Dew Point: 19°F , -7°C
Humidity: 74%
Barometer: 30.12 inHg , 1020 hPa
Clouds: Clear
Visibility: 10 miles , 16 km
2019/11/17 14:53 KMBS 171453Z 12004KT 10SM CLR M03/M07 A3012 RMK AO2 SLP211 T10331072 58017
 
KDTW - Detroit/Wayne, Michigan, USA
Distance from station: SSE 117mi, 188km
Updated: Sun, 17-Nov-2019 9:53am EST
Mostly cloudy
Mostly cloudy
 Wind from ENE
Wind: ENE 3 mph , 6 km/h
Temperature: 28°F , -2°C
Dew Point: 23°F , -5°C
Humidity: 80%
Barometer: 30.12 inHg , 1020 hPa
Clouds: Mostly cloudy
Visibility: 10 miles , 16 km
Cloud details: Few Clouds 18000 ft
Mostly cloudy 25000 ft
2019/11/17 14:53 KDTW 171453Z 06003KT 10SM FEW180 BKN250 M02/M05 A3012 RMK AO2 SLP208 I3000 T10171050 58015
KP58 - Port Hope, Michigan, USA
Distance from station: ENE 30mi, 48km
Updated: Sun, 17-Nov-2019 9:51am EST

 Wind from SSE
Wind: SSE 7 mph , 11 km/h
Temperature: 34°F , 1°C
Wind Chill: 28°F , -2°C
Dew Point: 27°F , -3°C
Humidity: 75%
Barometer: 30.13 inHg , 1020.3 hPa
2019/11/17 14:51 KP58 171451Z AUTO 16006KT 01/M03 A3013 RMK AO1 SLP214 T00111033 56015
KCFS - Caro/Tuscola, Michigan, USA
Distance from station: S 31mi, 50km
Updated: Sun, 17-Nov-2019 10:15am EST
Clear
Clear
 Wind from ESE
Wind: ESE 3 mph , 6 km/h
Temperature: 32°F , 0°C
Dew Point: 21°F , -6°C
Humidity: 64%
Barometer: 30.11 inHg , 1019.6 hPa
Clouds: Clear
Visibility: 10 miles , 16 km
2019/11/17 15:15 KCFS 171515Z AUTO 12003KT 10SM CLR 00/M06 A3011 RMK AO2 T10011061
 
KPHN - Port Huron, Michigan, USA
Distance from station: SSE 81mi, 131km
Updated: Sun, 17-Nov-2019 9:58am EST
Clear
Clear
 Wind from E
Wind: E 3 mph , 6 km/h
Temperature: 32°F , 0°C
Dew Point: 19°F , -7°C
Humidity: 60%
Barometer: 30.14 inHg , 1020.7 hPa
Clouds: Clear
Visibility: 10 miles , 16 km
2019/11/17 14:58 KPHN 171458Z AUTO 10003KT 10SM CLR 00/M07 A3014 RMK AO2
KPTK - Pontiac, Michigan, USA
Distance from station: S 86mi, 138km
Updated: Sun, 17-Nov-2019 9:53am EST
Mostly cloudy
Mostly cloudy
 Wind from SE
Wind: SE 3 mph , 6 km/h
Temperature: 28°F , -2°C
Dew Point: 21°F , -6°C
Humidity: 74%
Barometer: 30.09 inHg , 1019 hPa
Clouds: Mostly cloudy
Visibility: 10 miles , 16 km
Cloud details: Mostly cloudy 25000 ft
2019/11/17 14:53 KPTK 171453Z 13003KT 10SM BKN250 M02/M06 A3009 RMK AO2 SLP204 I3000 T10171056 58018 $
KMTC - Selfridge Angb, Michigan, USA
Distance from station: SSE 94mi, 151km
Updated: Sun, 17-Nov-2019 9:55am EST
Mostly cloudy
Mostly cloudy
 Wind from E
Wind: E 2 mph , 4 km/h
Temperature: 32°F , 0°C
Dew Point: 25°F , -4°C
Humidity: 75%
Barometer: 30.14 inHg , 1020.7 hPa
Clouds: Mostly cloudy
Visibility: 10 miles , 16 km
Cloud details: Few Clouds 16000 ft
Mostly cloudy 20000 ft
Mostly cloudy 25000 ft
2019/11/17 14:55 KMTC 171455Z 09002KT 10SM FEW160 BKN200 BKN250 M00/M04 A3014 RMK SLP210 WND DATA ESTMD ALSTG/SLP ESTMD